sensor_id;sensor_type;location;lat;lon;timestamp;P1;durP1;ratioP1;P2;durP2;ratioP2
64037;SDS011;54641;50.168;8.492;2022-10-31T00:02:12;9.80;;;3.40;;
64037;SDS011;54641;50.168;8.492;2022-10-31T00:04:43;13.60;;;3.40;;
64037;SDS011;54641;50.168;8.492;2022-10-31T00:07:13;12.70;;;3.90;;
64037;SDS011;54641;50.168;8.492;2022-10-31T00:09:44;6.90;;;2.90;;
64037;SDS011;54641;50.168;8.492;2022-10-31T00:12:14;11.60;;;3.40;;
64037;SDS011;54641;50.168;8.492;2022-10-31T00:14:44;7.40;;;3.30;;
64037;SDS011;54641;50.168;8.492;2022-10-31T00:17:15;12.50;;;3.20;;
64037;SDS011;54641;50.168;8.492;2022-10-31T00:19:49;10.40;;;3.30;;
64037;SDS011;54641;50.168;8.492;2022-10-31T00:22:19;6.60;;;3.20;;
64037;SDS011;54641;50.168;8.492;2022-10-31T00:24:50;12.80;;;3.00;;
64037;SDS011;54641;50.168;8.492;2022-10-31T00:27:20;10.00;;;3.20;;
64037;SDS011;54641;50.168;8.492;2022-10-31T00:29:51;8.70;;;3.20;;
64037;SDS011;54641;50.168;8.492;2022-10-31T00:32:21;11.00;;;3.60;;
64037;SDS011;54641;50.168;8.492;2022-10-31T00:34:52;7.40;;;3.50;;
64037;SDS011;54641;50.168;8.492;2022-10-31T00:37:23;7.70;;;3.40;;
64037;SDS011;54641;50.168;8.492;2022-10-31T00:39:53;9.10;;;4.40;;
64037;SDS011;54641;50.168;8.492;2022-10-31T00:42:24;10.50;;;3.90;;
64037;SDS011;54641;50.168;8.492;2022-10-31T00:44:56;11.90;;;4.60;;
64037;SDS011;54641;50.168;8.492;2022-10-31T00:47:26;9.90;;;3.60;;
64037;SDS011;54641;50.168;8.492;2022-10-31T00:49:57;12.80;;;4.10;;
64037;SDS011;54641;50.168;8.492;2022-10-31T00:52:27;13.70;;;4.60;;
64037;SDS011;54641;50.168;8.492;2022-10-31T00:54:58;9.20;;;4.10;;
64037;SDS011;54641;50.168;8.492;2022-10-31T00:57:29;6.70;;;3.80;;
64037;SDS011;54641;50.168;8.492;2022-10-31T00:59:59;8.30;;;3.40;;
64037;SDS011;54641;50.168;8.492;2022-10-31T01:02:30;9.50;;;3.30;;
64037;SDS011;54641;50.168;8.492;2022-10-31T01:05:01;10.30;;;3.30;;
64037;SDS011;54641;50.168;8.492;2022-10-31T01:07:34;12.80;;;3.90;;
64037;SDS011;54641;50.168;8.492;2022-10-31T01:10:09;10.20;;;4.20;;
64037;SDS011;54641;50.168;8.492;2022-10-31T01:12:41;11.60;;;4.00;;
64037;SDS011;54641;50.168;8.492;2022-10-31T01:15:14;11.20;;;3.50;;
64037;SDS011;54641;50.168;8.492;2022-10-31T01:17:48;8.50;;;3.90;;
64037;SDS011;54641;50.168;8.492;2022-10-31T01:20:19;8.90;;;3.60;;
64037;SDS011;54641;50.168;8.492;2022-10-31T01:22:49;10.00;;;5.20;;
64037;SDS011;54641;50.168;8.492;2022-10-31T01:25:20;15.80;;;6.70;;
64037;SDS011;54641;50.168;8.492;2022-10-31T01:28:05;14.00;;;6.70;;
64037;SDS011;54641;50.168;8.492;2022-10-31T01:30:36;11.40;;;6.60;;
64037;SDS011;54641;50.168;8.492;2022-10-31T01:33:06;14.10;;;6.40;;
64037;SDS011;54641;50.168;8.492;2022-10-31T01:35:37;11.10;;;6.70;;
64037;SDS011;54641;50.168;8.492;2022-10-31T01:38:07;10.40;;;5.90;;
64037;SDS011;54641;50.168;8.492;2022-10-31T01:40:38;13.00;;;7.00;;
64037;SDS011;54641;50.168;8.492;2022-10-31T01:43:10;16.50;;;6.60;;
64037;SDS011;54641;50.168;8.492;2022-10-31T01:45:57;15.30;;;6.80;;
64037;SDS011;54641;50.168;8.492;2022-10-31T01:48:28;12.40;;;6.40;;
64037;SDS011;54641;50.168;8.492;2022-10-31T01:50:59;16.40;;;6.80;;
64037;SDS011;54641;50.168;8.492;2022-10-31T01:53:32;12.90;;;6.30;;
64037;SDS011;54641;50.168;8.492;2022-10-31T01:56:04;14.00;;;6.70;;
64037;SDS011;54641;50.168;8.492;2022-10-31T01:58:37;12.20;;;5.30;;
64037;SDS011;54641;50.168;8.492;2022-10-31T02:01:08;11.50;;;5.40;;
64037;SDS011;54641;50.168;8.492;2022-10-31T02:03:39;16.60;;;5.60;;
64037;SDS011;54641;50.168;8.492;2022-10-31T02:06:10;9.80;;;4.60;;
64037;SDS011;54641;50.168;8.492;2022-10-31T02:11:11;10.90;;;5.70;;
64037;SDS011;54641;50.168;8.492;2022-10-31T02:13:42;8.70;;;4.80;;
64037;SDS011;54641;50.168;8.492;2022-10-31T02:16:13;10.90;;;4.80;;
64037;SDS011;54641;50.168;8.492;2022-10-31T02:18:44;13.80;;;5.50;;
64037;SDS011;54641;50.168;8.492;2022-10-31T02:21:16;10.80;;;5.60;;
64037;SDS011;54641;50.168;8.492;2022-10-31T02:24:05;16.00;;;6.00;;
64037;SDS011;54641;50.168;8.492;2022-10-31T02:27:05;14.00;;;6.10;;
64037;SDS011;54641;50.168;8.492;2022-10-31T02:32:54;10.70;;;5.60;;
64037;SDS011;54641;50.168;8.492;2022-10-31T02:35:36;13.30;;;6.20;;
64037;SDS011;54641;50.168;8.492;2022-10-31T02:38:13;12.20;;;5.80;;
64037;SDS011;54641;50.168;8.492;2022-10-31T02:40:51;12.00;;;5.60;;
64037;SDS011;54641;50.168;8.492;2022-10-31T02:43:42;17.50;;;6.80;;
64037;SDS011;54641;50.168;8.492;2022-10-31T02:46:19;16.70;;;6.20;;
64037;SDS011;54641;50.168;8.492;2022-10-31T02:48:57;11.10;;;5.70;;
64037;SDS011;54641;50.168;8.492;2022-10-31T02:51:29;18.00;;;6.50;;
64037;SDS011;54641;50.168;8.492;2022-10-31T02:53:59;13.10;;;5.70;;
64037;SDS011;54641;50.168;8.492;2022-10-31T02:56:30;12.80;;;6.40;;
64037;SDS011;54641;50.168;8.492;2022-10-31T02:59:01;11.20;;;6.40;;
64037;SDS011;54641;50.168;8.492;2022-10-31T03:01:36;11.60;;;5.50;;
64037;SDS011;54641;50.168;8.492;2022-10-31T03:04:26;11.30;;;5.90;;
64037;SDS011;54641;50.168;8.492;2022-10-31T03:07:03;10.80;;;6.30;;
64037;SDS011;54641;50.168;8.492;2022-10-31T03:09:40;15.20;;;6.90;;
64037;SDS011;54641;50.168;8.492;2022-10-31T03:12:15;14.20;;;8.40;;
64037;SDS011;54641;50.168;8.492;2022-10-31T03:14:51;17.90;;;7.40;;
64037;SDS011;54641;50.168;8.492;2022-10-31T03:17:25;14.60;;;7.40;;
64037;SDS011;54641;50.168;8.492;2022-10-31T03:19:59;14.90;;;7.60;;
64037;SDS011;54641;50.168;8.492;2022-10-31T03:22:31;16.70;;;7.70;;
64037;SDS011;54641;50.168;8.492;2022-10-31T03:25:02;16.10;;;9.30;;
64037;SDS011;54641;50.168;8.492;2022-10-31T03:27:35;18.30;;;7.70;;
64037;SDS011;54641;50.168;8.492;2022-10-31T03:30:08;12.50;;;7.20;;
64037;SDS011;54641;50.168;8.492;2022-10-31T03:32:53;13.70;;;7.10;;
64037;SDS011;54641;50.168;8.492;2022-10-31T03:35:25;14.10;;;6.70;;
64037;SDS011;54641;50.168;8.492;2022-10-31T03:37:57;14.60;;;7.60;;
64037;SDS011;54641;50.168;8.492;2022-10-31T03:40:34;14.60;;;7.20;;
64037;SDS011;54641;50.168;8.492;2022-10-31T03:43:07;15.10;;;7.40;;
64037;SDS011;54641;50.168;8.492;2022-10-31T03:48:09;17.60;;;8.30;;
64037;SDS011;54641;50.168;8.492;2022-10-31T03:50:41;21.80;;;9.80;;
64037;SDS011;54641;50.168;8.492;2022-10-31T03:53:14;15.80;;;7.70;;
64037;SDS011;54641;50.168;8.492;2022-10-31T03:55:49;15.30;;;7.90;;
64037;SDS011;54641;50.168;8.492;2022-10-31T03:58:23;12.20;;;7.40;;
64037;SDS011;54641;50.168;8.492;2022-10-31T04:00:56;18.00;;;7.90;;
64037;SDS011;54641;50.168;8.492;2022-10-31T04:06:00;13.70;;;7.70;;
64037;SDS011;54641;50.168;8.492;2022-10-31T04:08:32;18.40;;;9.30;;
64037;SDS011;54641;50.168;8.492;2022-10-31T04:11:05;16.30;;;8.40;;
64037;SDS011;54641;50.168;8.492;2022-10-31T04:13:40;17.00;;;8.20;;
64037;SDS011;54641;50.168;8.492;2022-10-31T04:16:14;14.90;;;8.20;;
64037;SDS011;54641;50.168;8.492;2022-10-31T04:18:46;17.40;;;7.30;;
64037;SDS011;54641;50.168;8.492;2022-10-31T04:21:17;12.20;;;7.00;;
64037;SDS011;54641;50.168;8.492;2022-10-31T04:23:49;24.30;;;8.50;;
64037;SDS011;54641;50.168;8.492;2022-10-31T04:26:24;15.40;;;7.00;;
64037;SDS011;54641;50.168;8.492;2022-10-31T04:28:59;15.90;;;7.50;;
64037;SDS011;54641;50.168;8.492;2022-10-31T04:31:47;14.70;;;8.00;;
64037;SDS011;54641;50.168;8.492;2022-10-31T04:34:18;14.70;;;6.80;;
64037;SDS011;54641;50.168;8.492;2022-10-31T04:36:50;11.80;;;6.90;;
64037;SDS011;54641;50.168;8.492;2022-10-31T04:39:21;17.70;;;7.70;;
64037;SDS011;54641;50.168;8.492;2022-10-31T04:42:12;16.30;;;7.60;;
64037;SDS011;54641;50.168;8.492;2022-10-31T04:44:43;13.40;;;7.80;;
64037;SDS011;54641;50.168;8.492;2022-10-31T04:47:14;16.70;;;7.80;;
64037;SDS011;54641;50.168;8.492;2022-10-31T04:49:45;15.20;;;7.50;;
64037;SDS011;54641;50.168;8.492;2022-10-31T04:52:15;11.80;;;7.40;;
64037;SDS011;54641;50.168;8.492;2022-10-31T04:54:46;12.80;;;7.10;;
64037;SDS011;54641;50.168;8.492;2022-10-31T04:57:41;17.10;;;7.30;;
64037;SDS011;54641;50.168;8.492;2022-10-31T05:00:14;18.70;;;7.90;;
64037;SDS011;54641;50.168;8.492;2022-10-31T05:02:46;14.40;;;7.80;;
64037;SDS011;54641;50.168;8.492;2022-10-31T05:05:18;14.80;;;8.20;;
64037;SDS011;54641;50.168;8.492;2022-10-31T05:07:50;13.00;;;8.00;;
64037;SDS011;54641;50.168;8.492;2022-10-31T05:10:23;13.00;;;7.80;;
64037;SDS011;54641;50.168;8.492;2022-10-31T05:12:56;14.90;;;7.90;;
64037;SDS011;54641;50.168;8.492;2022-10-31T05:15:46;17.20;;;8.40;;
64037;SDS011;54641;50.168;8.492;2022-10-31T05:18:19;16.60;;;9.60;;
64037;SDS011;54641;50.168;8.492;2022-10-31T05:21:10;13.00;;;9.40;;
64037;SDS011;54641;50.168;8.492;2022-10-31T05:23:48;15.30;;;10.10;;
64037;SDS011;54641;50.168;8.492;2022-10-31T05:26:20;19.90;;;9.40;;
64037;SDS011;54641;50.168;8.492;2022-10-31T05:28:51;15.00;;;9.60;;
64037;SDS011;54641;50.168;8.492;2022-10-31T05:31:21;18.20;;;9.70;;
64037;SDS011;54641;50.168;8.492;2022-10-31T05:33:52;20.40;;;10.10;;
64037;SDS011;54641;50.168;8.492;2022-10-31T05:37:01;19.30;;;10.20;;
64037;SDS011;54641;50.168;8.492;2022-10-31T05:39:32;18.40;;;11.00;;
64037;SDS011;54641;50.168;8.492;2022-10-31T05:44:34;16.40;;;10.20;;
64037;SDS011;54641;50.168;8.492;2022-10-31T05:47:13;17.30;;;9.80;;
64037;SDS011;54641;50.168;8.492;2022-10-31T05:50:10;19.30;;;11.90;;
64037;SDS011;54641;50.168;8.492;2022-10-31T05:52:59;22.00;;;10.80;;
64037;SDS011;54641;50.168;8.492;2022-10-31T05:55:34;20.90;;;10.30;;
64037;SDS011;54641;50.168;8.492;2022-10-31T05:58:11;20.90;;;10.80;;
64037;SDS011;54641;50.168;8.492;2022-10-31T06:00:48;16.60;;;9.40;;
64037;SDS011;54641;50.168;8.492;2022-10-31T06:03:18;21.50;;;10.20;;
64037;SDS011;54641;50.168;8.492;2022-10-31T06:06:00;17.90;;;8.60;;
64037;SDS011;54641;50.168;8.492;2022-10-31T06:08:34;15.80;;;7.90;;
64037;SDS011;54641;50.168;8.492;2022-10-31T06:11:07;18.00;;;8.60;;
64037;SDS011;54641;50.168;8.492;2022-10-31T06:14:10;16.10;;;8.60;;
64037;SDS011;54641;50.168;8.492;2022-10-31T06:16:47;21.70;;;9.20;;
64037;SDS011;54641;50.168;8.492;2022-10-31T06:19:36;20.60;;;8.40;;
64037;SDS011;54641;50.168;8.492;2022-10-31T06:22:08;17.00;;;7.20;;
64037;SDS011;54641;50.168;8.492;2022-10-31T06:24:40;19.30;;;7.50;;
64037;SDS011;54641;50.168;8.492;2022-10-31T06:27:29;17.90;;;7.60;;
64037;SDS011;54641;50.168;8.492;2022-10-31T06:30:05;14.60;;;7.90;;
64037;SDS011;54641;50.168;8.492;2022-10-31T06:32:37;15.30;;;8.30;;
64037;SDS011;54641;50.168;8.492;2022-10-31T06:35:09;12.50;;;6.90;;
64037;SDS011;54641;50.168;8.492;2022-10-31T06:37:40;13.50;;;6.40;;
64037;SDS011;54641;50.168;8.492;2022-10-31T06:40:26;13.80;;;6.20;;
64037;SDS011;54641;50.168;8.492;2022-10-31T06:43:23;11.90;;;6.80;;
64037;SDS011;54641;50.168;8.492;2022-10-31T06:46:09;11.30;;;6.00;;
64037;SDS011;54641;50.168;8.492;2022-10-31T06:48:48;14.30;;;7.40;;
64037;SDS011;54641;50.168;8.492;2022-10-31T06:51:23;15.80;;;6.60;;
64037;SDS011;54641;50.168;8.492;2022-10-31T06:53:54;15.40;;;6.20;;
64037;SDS011;54641;50.168;8.492;2022-10-31T06:56:25;14.50;;;6.70;;
64037;SDS011;54641;50.168;8.492;2022-10-31T06:58:56;12.10;;;6.80;;
64037;SDS011;54641;50.168;8.492;2022-10-31T07:01:58;10.50;;;6.30;;
64037;SDS011;54641;50.168;8.492;2022-10-31T07:04:29;15.80;;;6.80;;
64037;SDS011;54641;50.168;8.492;2022-10-31T07:06:59;12.50;;;6.60;;
64037;SDS011;54641;50.168;8.492;2022-10-31T07:09:30;11.10;;;5.90;;
64037;SDS011;54641;50.168;8.492;2022-10-31T07:12:02;17.40;;;7.40;;
64037;SDS011;54641;50.168;8.492;2022-10-31T07:14:36;11.50;;;6.90;;
64037;SDS011;54641;50.168;8.492;2022-10-31T07:17:07;13.00;;;7.10;;
64037;SDS011;54641;50.168;8.492;2022-10-31T07:19:40;12.70;;;7.70;;
64037;SDS011;54641;50.168;8.492;2022-10-31T07:22:12;13.10;;;7.30;;
64037;SDS011;54641;50.168;8.492;2022-10-31T07:24:42;16.10;;;6.60;;
64037;SDS011;54641;50.168;8.492;2022-10-31T07:27:36;13.30;;;7.40;;
64037;SDS011;54641;50.168;8.492;2022-10-31T07:30:11;13.40;;;7.90;;
64037;SDS011;54641;50.168;8.492;2022-10-31T07:32:43;13.90;;;7.10;;
64037;SDS011;54641;50.168;8.492;2022-10-31T07:35:17;14.00;;;7.10;;
64037;SDS011;54641;50.168;8.492;2022-10-31T07:37:54;17.60;;;8.00;;
64037;SDS011;54641;50.168;8.492;2022-10-31T07:40:25;14.70;;;7.90;;
64037;SDS011;54641;50.168;8.492;2022-10-31T07:42:57;10.90;;;7.40;;
64037;SDS011;54641;50.168;8.492;2022-10-31T07:45:50;13.80;;;6.80;;
64037;SDS011;54641;50.168;8.492;2022-10-31T07:48:38;16.20;;;7.00;;
64037;SDS011;54641;50.168;8.492;2022-10-31T07:51:28;11.90;;;7.20;;
64037;SDS011;54641;50.168;8.492;2022-10-31T07:54:15;13.60;;;7.70;;
64037;SDS011;54641;50.168;8.492;2022-10-31T07:56:45;15.20;;;7.40;;
64037;SDS011;54641;50.168;8.492;2022-10-31T07:59:16;12.10;;;7.70;;
64037;SDS011;54641;50.168;8.492;2022-10-31T08:01:48;10.80;;;6.70;;
64037;SDS011;54641;50.168;8.492;2022-10-31T08:04:48;16.00;;;8.70;;
64037;SDS011;54641;50.168;8.492;2022-10-31T08:10:12;9.20;;;6.40;;
64037;SDS011;54641;50.168;8.492;2022-10-31T08:12:43;12.40;;;7.40;;
64037;SDS011;54641;50.168;8.492;2022-10-31T08:15:14;18.10;;;8.90;;
64037;SDS011;54641;50.168;8.492;2022-10-31T08:17:44;15.10;;;8.30;;
64037;SDS011;54641;50.168;8.492;2022-10-31T08:20:15;13.10;;;8.80;;
64037;SDS011;54641;50.168;8.492;2022-10-31T08:22:53;11.90;;;8.00;;
64037;SDS011;54641;50.168;8.492;2022-10-31T08:25:26;15.40;;;8.60;;
64037;SDS011;54641;50.168;8.492;2022-10-31T08:28:05;14.60;;;8.50;;
64037;SDS011;54641;50.168;8.492;2022-10-31T08:30:38;14.80;;;7.80;;
64037;SDS011;54641;50.168;8.492;2022-10-31T08:33:27;13.20;;;8.40;;
64037;SDS011;54641;50.168;8.492;2022-10-31T08:36:17;13.30;;;8.20;;
64037;SDS011;54641;50.168;8.492;2022-10-31T08:38:56;13.10;;;7.90;;
64037;SDS011;54641;50.168;8.492;2022-10-31T08:41:30;13.20;;;8.50;;
64037;SDS011;54641;50.168;8.492;2022-10-31T08:44:00;13.10;;;7.90;;
64037;SDS011;54641;50.168;8.492;2022-10-31T08:46:32;15.60;;;8.90;;
64037;SDS011;54641;50.168;8.492;2022-10-31T08:49:03;20.30;;;9.80;;
64037;SDS011;54641;50.168;8.492;2022-10-31T08:51:34;12.20;;;8.30;;
64037;SDS011;54641;50.168;8.492;2022-10-31T08:54:05;12.50;;;9.00;;
64037;SDS011;54641;50.168;8.492;2022-10-31T08:56:57;15.10;;;9.40;;
64037;SDS011;54641;50.168;8.492;2022-10-31T08:59:36;17.50;;;8.80;;
64037;SDS011;54641;50.168;8.492;2022-10-31T09:02:41;16.10;;;9.00;;
64037;SDS011;54641;50.168;8.492;2022-10-31T09:05:13;17.00;;;9.20;;
64037;SDS011;54641;50.168;8.492;2022-10-31T09:07:45;16.70;;;10.30;;
64037;SDS011;54641;50.168;8.492;2022-10-31T09:10:21;13.50;;;9.80;;
64037;SDS011;54641;50.168;8.492;2022-10-31T09:12:58;14.90;;;8.80;;
64037;SDS011;54641;50.168;8.492;2022-10-31T09:16:00;16.50;;;9.80;;
64037;SDS011;54641;50.168;8.492;2022-10-31T09:18:34;11.80;;;8.50;;
64037;SDS011;54641;50.168;8.492;2022-10-31T09:21:07;13.50;;;8.80;;
64037;SDS011;54641;50.168;8.492;2022-10-31T09:26:11;16.10;;;10.00;;
64037;SDS011;54641;50.168;8.492;2022-10-31T09:28:54;14.40;;;8.80;;
64037;SDS011;54641;50.168;8.492;2022-10-31T09:31:29;12.70;;;8.10;;
64037;SDS011;54641;50.168;8.492;2022-10-31T09:34:05;13.90;;;8.70;;
64037;SDS011;54641;50.168;8.492;2022-10-31T09:36:38;13.60;;;9.70;;
64037;SDS011;54641;50.168;8.492;2022-10-31T09:39:15;13.30;;;8.10;;
64037;SDS011;54641;50.168;8.492;2022-10-31T09:41:57;14.30;;;8.90;;
64037;SDS011;54641;50.168;8.492;2022-10-31T09:44:46;17.40;;;8.80;;
64037;SDS011;54641;50.168;8.492;2022-10-31T09:47:28;15.80;;;9.10;;
64037;SDS011;54641;50.168;8.492;2022-10-31T09:50:28;14.00;;;8.60;;
64037;SDS011;54641;50.168;8.492;2022-10-31T10:00:35;15.00;;;8.50;;
64037;SDS011;54641;50.168;8.492;2022-10-31T10:03:07;16.50;;;8.80;;
64037;SDS011;54641;50.168;8.492;2022-10-31T10:05:45;14.60;;;8.60;;
64037;SDS011;54641;50.168;8.492;2022-10-31T10:08:25;15.20;;;8.50;;
64037;SDS011;54641;50.168;8.492;2022-10-31T10:11:05;14.40;;;8.00;;
64037;SDS011;54641;50.168;8.492;2022-10-31T10:14:18;12.20;;;8.50;;
64037;SDS011;54641;50.168;8.492;2022-10-31T10:16:59;12.50;;;7.60;;
64037;SDS011;54641;50.168;8.492;2022-10-31T10:19:41;13.50;;;7.30;;
64037;SDS011;54641;50.168;8.492;2022-10-31T10:22:19;14.10;;;7.90;;
64037;SDS011;54641;50.168;8.492;2022-10-31T10:24:59;12.60;;;7.70;;
64037;SDS011;54641;50.168;8.492;2022-10-31T10:27:40;16.30;;;8.10;;
64037;SDS011;54641;50.168;8.492;2022-10-31T10:30:16;16.50;;;7.60;;
64037;SDS011;54641;50.168;8.492;2022-10-31T10:32:48;18.70;;;7.20;;
64037;SDS011;54641;50.168;8.492;2022-10-31T10:37:51;10.90;;;7.20;;
64037;SDS011;54641;50.168;8.492;2022-10-31T10:40:24;12.20;;;7.60;;
64037;SDS011;54641;50.168;8.492;2022-10-31T10:42:59;11.40;;;7.10;;
64037;SDS011;54641;50.168;8.492;2022-10-31T10:46:00;17.30;;;8.20;;
64037;SDS011;54641;50.168;8.492;2022-10-31T10:49:06;14.50;;;8.90;;
64037;SDS011;54641;50.168;8.492;2022-10-31T10:51:45;13.30;;;7.70;;
64037;SDS011;54641;50.168;8.492;2022-10-31T10:54:41;13.70;;;8.30;;
64037;SDS011;54641;50.168;8.492;2022-10-31T10:57:21;13.00;;;8.00;;
64037;SDS011;54641;50.168;8.492;2022-10-31T10:59:56;11.50;;;7.70;;
64037;SDS011;54641;50.168;8.492;2022-10-31T11:02:30;14.30;;;8.10;;
64037;SDS011;54641;50.168;8.492;2022-10-31T11:05:01;13.30;;;7.70;;
64037;SDS011;54641;50.168;8.492;2022-10-31T11:07:39;17.10;;;7.30;;
64037;SDS011;54641;50.168;8.492;2022-10-31T11:10:12;13.20;;;7.00;;
64037;SDS011;54641;50.168;8.492;2022-10-31T11:12:45;14.00;;;6.90;;
64037;SDS011;54641;50.168;8.492;2022-10-31T11:15:28;11.90;;;6.80;;
64037;SDS011;54641;50.168;8.492;2022-10-31T11:18:01;10.30;;;6.30;;
64037;SDS011;54641;50.168;8.492;2022-10-31T11:20:35;11.80;;;7.00;;
64037;SDS011;54641;50.168;8.492;2022-10-31T11:23:15;12.80;;;7.10;;
64037;SDS011;54641;50.168;8.492;2022-10-31T11:25:50;14.50;;;7.50;;
64037;SDS011;54641;50.168;8.492;2022-10-31T11:28:22;14.90;;;7.50;;
64037;SDS011;54641;50.168;8.492;2022-10-31T11:30:54;11.10;;;6.80;;
64037;SDS011;54641;50.168;8.492;2022-10-31T11:33:28;14.10;;;6.10;;
64037;SDS011;54641;50.168;8.492;2022-10-31T11:36:01;9.70;;;6.30;;
64037;SDS011;54641;50.168;8.492;2022-10-31T11:38:34;12.90;;;7.10;;
64037;SDS011;54641;50.168;8.492;2022-10-31T11:41:11;13.20;;;7.40;;
64037;SDS011;54641;50.168;8.492;2022-10-31T11:43:47;12.20;;;7.50;;
64037;SDS011;54641;50.168;8.492;2022-10-31T11:46:21;12.30;;;6.60;;
64037;SDS011;54641;50.168;8.492;2022-10-31T11:48:53;11.20;;;6.90;;
64037;SDS011;54641;50.168;8.492;2022-10-31T11:51:25;13.80;;;7.30;;
64037;SDS011;54641;50.168;8.492;2022-10-31T11:53:57;13.60;;;7.00;;
64037;SDS011;54641;50.168;8.492;2022-10-31T11:56:38;11.10;;;6.40;;
64037;SDS011;54641;50.168;8.492;2022-10-31T11:59:25;9.10;;;6.10;;
64037;SDS011;54641;50.168;8.492;2022-10-31T12:01:57;12.50;;;6.20;;
64037;SDS011;54641;50.168;8.492;2022-10-31T12:07:05;10.90;;;5.80;;
64037;SDS011;54641;50.168;8.492;2022-10-31T12:09:36;10.30;;;4.80;;
64037;SDS011;54641;50.168;8.492;2022-10-31T12:14:44;9.90;;;5.10;;
64037;SDS011;54641;50.168;8.492;2022-10-31T12:17:19;9.90;;;4.90;;
64037;SDS011;54641;50.168;8.492;2022-10-31T12:19:55;10.40;;;5.20;;
64037;SDS011;54641;50.168;8.492;2022-10-31T12:22:33;11.50;;;5.60;;
64037;SDS011;54641;50.168;8.492;2022-10-31T12:25:17;16.70;;;5.60;;
64037;SDS011;54641;50.168;8.492;2022-10-31T12:28:12;10.90;;;4.70;;
64037;SDS011;54641;50.168;8.492;2022-10-31T12:33:28;10.40;;;4.80;;
64037;SDS011;54641;50.168;8.492;2022-10-31T12:36:14;10.60;;;5.20;;
64037;SDS011;54641;50.168;8.492;2022-10-31T12:39:01;11.90;;;5.10;;
64037;SDS011;54641;50.168;8.492;2022-10-31T12:41:45;9.20;;;4.90;;
64037;SDS011;54641;50.168;8.492;2022-10-31T12:44:33;11.00;;;4.40;;
64037;SDS011;54641;50.168;8.492;2022-10-31T12:47:38;16.00;;;5.20;;
64037;SDS011;54641;50.168;8.492;2022-10-31T12:50:35;9.70;;;4.80;;
64037;SDS011;54641;50.168;8.492;2022-10-31T12:53:18;12.30;;;5.40;;
64037;SDS011;54641;50.168;8.492;2022-10-31T12:55:58;11.30;;;5.00;;
64037;SDS011;54641;50.168;8.492;2022-10-31T13:08:54;9.60;;;4.30;;
64037;SDS011;54641;50.168;8.492;2022-10-31T13:11:27;9.20;;;4.60;;
64037;SDS011;54641;50.168;8.492;2022-10-31T13:13:59;9.70;;;4.80;;
64037;SDS011;54641;50.168;8.492;2022-10-31T13:16:34;10.50;;;4.90;;
64037;SDS011;54641;50.168;8.492;2022-10-31T13:19:07;9.90;;;5.30;;
64037;SDS011;54641;50.168;8.492;2022-10-31T13:21:40;11.00;;;5.80;;
64037;SDS011;54641;50.168;8.492;2022-10-31T13:24:13;9.90;;;5.10;;
64037;SDS011;54641;50.168;8.492;2022-10-31T13:26:50;12.40;;;4.70;;
64037;SDS011;54641;50.168;8.492;2022-10-31T13:29:23;9.20;;;4.90;;
64037;SDS011;54641;50.168;8.492;2022-10-31T13:31:59;12.40;;;4.80;;
64037;SDS011;54641;50.168;8.492;2022-10-31T13:34:33;9.60;;;4.80;;
64037;SDS011;54641;50.168;8.492;2022-10-31T13:37:09;7.70;;;4.70;;
64037;SDS011;54641;50.168;8.492;2022-10-31T13:39:48;10.50;;;5.20;;
64037;SDS011;54641;50.168;8.492;2022-10-31T13:42:25;13.30;;;6.10;;
64037;SDS011;54641;50.168;8.492;2022-10-31T13:45:13;12.00;;;5.70;;
64037;SDS011;54641;50.168;8.492;2022-10-31T13:50:55;12.70;;;5.50;;
64037;SDS011;54641;50.168;8.492;2022-10-31T13:53:37;9.00;;;5.10;;
64037;SDS011;54641;50.168;8.492;2022-10-31T13:56:19;9.80;;;5.00;;
64037;SDS011;54641;50.168;8.492;2022-10-31T14:01:49;8.70;;;4.70;;
64037;SDS011;54641;50.168;8.492;2022-10-31T14:04:23;11.80;;;5.70;;
64037;SDS011;54641;50.168;8.492;2022-10-31T14:06:57;8.30;;;4.70;;
64037;SDS011;54641;50.168;8.492;2022-10-31T14:09:35;8.70;;;5.40;;
64037;SDS011;54641;50.168;8.492;2022-10-31T14:12:11;11.70;;;5.50;;
64037;SDS011;54641;50.168;8.492;2022-10-31T14:14:54;11.20;;;5.60;;
64037;SDS011;54641;50.168;8.492;2022-10-31T14:17:26;11.20;;;5.10;;
64037;SDS011;54641;50.168;8.492;2022-10-31T14:20:02;9.30;;;4.90;;
64037;SDS011;54641;50.168;8.492;2022-10-31T14:22:46;23.80;;;8.20;;
64037;SDS011;54641;50.168;8.492;2022-10-31T14:25:26;36.70;;;12.90;;
64037;SDS011;54641;50.168;8.492;2022-10-31T14:27:59;11.40;;;5.80;;
64037;SDS011;54641;50.168;8.492;2022-10-31T14:30:31;13.40;;;5.60;;
64037;SDS011;54641;50.168;8.492;2022-10-31T14:33:18;18.10;;;7.10;;
64037;SDS011;54641;50.168;8.492;2022-10-31T14:35:51;21.90;;;6.80;;
64037;SDS011;54641;50.168;8.492;2022-10-31T14:38:34;13.40;;;4.70;;
64037;SDS011;54641;50.168;8.492;2022-10-31T14:41:14;12.10;;;5.70;;
64037;SDS011;54641;50.168;8.492;2022-10-31T14:44:14;11.90;;;5.50;;
64037;SDS011;54641;50.168;8.492;2022-10-31T14:47:05;14.30;;;5.40;;
64037;SDS011;54641;50.168;8.492;2022-10-31T14:49:58;12.10;;;5.70;;
64037;SDS011;54641;50.168;8.492;2022-10-31T14:52:51;15.90;;;6.60;;
64037;SDS011;54641;50.168;8.492;2022-10-31T14:55:22;12.10;;;5.40;;
64037;SDS011;54641;50.168;8.492;2022-10-31T14:57:54;17.20;;;5.80;;
64037;SDS011;54641;50.168;8.492;2022-10-31T15:00:25;13.70;;;5.30;;
64037;SDS011;54641;50.168;8.492;2022-10-31T15:03:03;10.80;;;5.30;;
64037;SDS011;54641;50.168;8.492;2022-10-31T15:05:42;9.80;;;5.40;;
64037;SDS011;54641;50.168;8.492;2022-10-31T15:08:26;11.90;;;5.30;;
64037;SDS011;54641;50.168;8.492;2022-10-31T15:11:06;9.70;;;5.00;;
64037;SDS011;54641;50.168;8.492;2022-10-31T15:13:44;13.30;;;5.60;;
64037;SDS011;54641;50.168;8.492;2022-10-31T15:16:16;10.30;;;4.50;;
64037;SDS011;54641;50.168;8.492;2022-10-31T15:18:56;10.30;;;3.80;;
64037;SDS011;54641;50.168;8.492;2022-10-31T15:21:28;10.90;;;4.50;;
64037;SDS011;54641;50.168;8.492;2022-10-31T15:23:59;9.70;;;4.50;;
64037;SDS011;54641;50.168;8.492;2022-10-31T15:26:32;12.60;;;5.00;;
64037;SDS011;54641;50.168;8.492;2022-10-31T15:29:04;10.30;;;4.60;;
64037;SDS011;54641;50.168;8.492;2022-10-31T15:31:49;10.60;;;4.30;;
64037;SDS011;54641;50.168;8.492;2022-10-31T15:34:22;12.90;;;5.00;;
64037;SDS011;54641;50.168;8.492;2022-10-31T15:36:55;7.50;;;5.00;;
64037;SDS011;54641;50.168;8.492;2022-10-31T15:39:26;10.80;;;5.10;;
64037;SDS011;54641;50.168;8.492;2022-10-31T15:41:56;10.30;;;4.00;;
64037;SDS011;54641;50.168;8.492;2022-10-31T15:44:28;9.70;;;4.40;;
64037;SDS011;54641;50.168;8.492;2022-10-31T15:47:03;8.70;;;5.10;;
64037;SDS011;54641;50.168;8.492;2022-10-31T15:49:40;10.70;;;5.10;;
64037;SDS011;54641;50.168;8.492;2022-10-31T15:52:17;8.40;;;4.60;;
64037;SDS011;54641;50.168;8.492;2022-10-31T15:54:53;8.10;;;4.80;;
64037;SDS011;54641;50.168;8.492;2022-10-31T15:57:24;12.20;;;5.40;;
64037;SDS011;54641;50.168;8.492;2022-10-31T15:59:55;11.70;;;5.60;;
64037;SDS011;54641;50.168;8.492;2022-10-31T16:02:26;9.00;;;4.60;;
64037;SDS011;54641;50.168;8.492;2022-10-31T16:04:58;13.50;;;5.40;;
64037;SDS011;54641;50.168;8.492;2022-10-31T16:07:30;15.00;;;5.90;;
64037;SDS011;54641;50.168;8.492;2022-10-31T16:10:02;11.40;;;6.20;;
64037;SDS011;54641;50.168;8.492;2022-10-31T16:12:35;10.30;;;5.60;;
64037;SDS011;54641;50.168;8.492;2022-10-31T16:15:14;8.80;;;5.00;;
64037;SDS011;54641;50.168;8.492;2022-10-31T16:17:47;9.50;;;5.40;;
64037;SDS011;54641;50.168;8.492;2022-10-31T16:20:28;8.90;;;5.50;;
64037;SDS011;54641;50.168;8.492;2022-10-31T16:23:01;10.70;;;5.10;;
64037;SDS011;54641;50.168;8.492;2022-10-31T16:25:35;11.50;;;6.20;;